createdAt,value
2018-04-23T00:00:13.985Z,20.03
2018-04-23T00:02:42.606Z,19.93
2018-04-23T00:05:10.825Z,19.88
2018-04-23T00:07:39.195Z,19.72
2018-04-23T00:10:07.780Z,19.63
2018-04-23T00:12:36.117Z,19.54
2018-04-23T00:15:04.384Z,19.60
2018-04-23T00:17:33.083Z,19.55
2018-04-23T00:20:01.299Z,19.52
2018-04-23T00:22:29.608Z,19.30
2018-04-23T00:24:58.118Z,19.10
2018-04-23T00:27:26.331Z,18.97
2018-04-23T00:29:54.730Z,18.59
2018-04-23T00:32:23.359Z,18.28
2018-04-23T00:34:51.604Z,18.00
2018-04-23T00:37:19.807Z,17.84
2018-04-23T00:39:48.518Z,17.81
2018-04-23T00:42:16.729Z,17.79
2018-04-23T00:44:44.949Z,17.79
2018-04-23T00:47:13.576Z,17.77
2018-04-23T00:49:41.785Z,17.76
2018-04-23T00:52:10.104Z,17.72
2018-04-23T00:54:38.718Z,17.68
2018-04-23T00:57:07.014Z,17.72
2018-04-23T00:59:35.310Z,17.76
2018-04-23T01:02:04.054Z,17.79
2018-04-23T01:04:32.291Z,17.81
2018-04-23T01:07:00.612Z,17.83
2018-04-23T01:09:29.116Z,17.86
2018-04-23T01:11:57.328Z,17.91
2018-04-23T01:14:25.691Z,17.90
2018-04-23T01:16:54.439Z,17.92
2018-04-23T01:19:22.699Z,17.88
2018-04-23T01:21:50.908Z,17.88
2018-04-23T01:24:19.448Z,17.93
2018-04-23T01:26:47.696Z,17.91
2018-04-23T01:29:16.060Z,17.89
2018-04-23T01:31:44.685Z,17.90
2018-04-23T01:34:12.928Z,17.91
2018-04-23T01:36:41.337Z,17.90
2018-04-23T01:39:10.007Z,17.88
2018-04-23T01:41:38.224Z,17.93
2018-04-23T01:44:07.316Z,17.94
2018-04-23T01:46:35.866Z,17.97
2018-04-23T01:49:04.534Z,17.99
2018-04-23T01:51:32.740Z,17.99
2018-04-23T01:54:00.957Z,17.99
2018-04-23T01:56:29.615Z,17.98
2018-04-23T01:58:57.844Z,17.94
2018-04-23T02:01:26.165Z,18.02
2018-04-23T02:03:54.842Z,17.96
2018-04-23T02:06:23.081Z,17.90
2018-04-23T02:08:51.288Z,17.83
2018-04-23T02:11:19.973Z,17.79
2018-04-23T02:13:48.216Z,17.84
2018-04-23T02:16:16.431Z,17.87
2018-04-23T02:18:45.210Z,17.96
2018-04-23T02:21:13.422Z,17.97
2018-04-23T02:23:42.214Z,17.97
2018-04-23T02:26:10.989Z,17.87
2018-04-23T02:28:39.213Z,17.88
2018-04-23T02:31:07.445Z,17.86
2018-04-23T02:33:36.180Z,17.89
2018-04-23T02:36:04.392Z,17.85
2018-04-23T02:41:08.697Z,17.80
2018-04-23T02:43:37.312Z,17.79
2018-04-23T02:46:05.560Z,17.80
2018-04-23T02:48:33.873Z,17.75
2018-04-23T02:51:02.449Z,17.82
2018-04-23T02:53:30.701Z,17.83
2018-04-23T02:55:58.968Z,17.82
2018-04-23T02:58:27.525Z,17.77
2018-04-23T03:00:55.737Z,17.77
2018-04-23T03:03:24.084Z,17.80
2018-04-23T03:05:52.675Z,17.73
2018-04-23T03:08:20.972Z,17.68
2018-04-23T03:10:49.267Z,17.55
2018-04-23T03:13:17.980Z,17.41
2018-04-23T03:15:46.245Z,17.28
2018-04-23T03:18:14.471Z,17.24
2018-04-23T03:20:43.040Z,17.19
2018-04-23T03:23:11.256Z,17.18
2018-04-23T03:25:52.691Z,17.11
2018-04-23T03:28:26.563Z,17.04
2018-04-23T03:30:54.763Z,17.03
2018-04-23T03:33:23.268Z,17.03
2018-04-23T03:35:51.523Z,17.05
2018-04-23T03:38:19.906Z,17.10
2018-04-23T03:40:48.427Z,17.14
2018-04-23T03:43:16.677Z,17.14
2018-04-23T03:45:45.055Z,17.16
2018-04-23T03:48:13.568Z,17.18
2018-04-23T03:50:54.432Z,17.19
2018-04-23T03:53:23.090Z,17.19
2018-04-23T03:55:51.525Z,17.23
2018-04-23T03:58:20.362Z,17.20
2018-04-23T04:00:48.886Z,17.18
2018-04-23T04:03:17.162Z,17.06
2018-04-23T04:05:45.638Z,17.07
2018-04-23T04:08:14.596Z,17.09
2018-04-23T04:10:42.836Z,17.07
2018-04-23T04:16:29.010Z,17.02
2018-04-23T04:18:57.210Z,16.98
2018-04-23T04:21:25.460Z,17.00
2018-04-23T04:23:54.145Z,17.02
2018-04-23T04:26:22.361Z,17.01
2018-04-23T04:28:50.685Z,17.12
2018-04-23T04:31:19.400Z,17.08
2018-04-23T04:33:47.639Z,17.05
2018-04-23T04:36:15.841Z,17.01
2018-04-23T04:38:44.526Z,16.99
2018-04-23T04:41:12.733Z,17.07
2018-04-23T04:43:40.925Z,17.01
2018-04-23T04:46:09.604Z,16.98
2018-04-23T04:48:37.801Z,16.95
2018-04-23T04:51:06.003Z,17.05
2018-04-23T04:53:36.334Z,16.99
2018-04-23T04:56:05.007Z,16.92
2018-04-23T04:58:33.237Z,16.92
2018-04-23T05:01:01.986Z,16.98
2018-04-23T05:03:30.889Z,16.98
2018-04-23T05:05:59.161Z,16.95
2018-04-23T05:08:27.601Z,16.92
2018-04-23T05:10:56.200Z,16.92
2018-04-23T05:13:24.431Z,16.94
2018-04-23T05:15:52.668Z,16.95
2018-04-23T05:18:21.337Z,16.93
2018-04-23T05:20:50.430Z,17.00
2018-04-23T05:23:18.622Z,17.07
2018-04-23T05:25:47.417Z,17.07
2018-04-23T05:28:15.673Z,17.11
2018-04-23T05:30:43.881Z,17.06
2018-04-23T05:33:12.616Z,16.97
2018-04-23T05:35:40.912Z,17.07
2018-04-23T05:38:09.117Z,17.07
2018-04-23T05:40:37.746Z,17.11
2018-04-23T05:43:06.009Z,17.06
2018-04-23T05:45:34.223Z,17.11
2018-04-23T05:48:02.907Z,17.15
2018-04-23T05:50:31.496Z,17.22
2018-04-23T05:52:59.697Z,17.30
2018-04-23T05:55:28.243Z,17.46
2018-04-23T05:57:56.933Z,17.41
2018-04-23T06:00:25.125Z,17.42
2018-04-23T06:02:53.323Z,17.34
2018-04-23T06:05:21.969Z,17.36
2018-04-23T06:07:50.669Z,17.40
2018-04-23T06:10:20.094Z,17.47
2018-04-23T06:12:48.591Z,17.46
2018-04-23T06:15:17.158Z,17.37
2018-04-23T06:17:45.365Z,17.34
2018-04-23T06:20:13.621Z,17.30
2018-04-23T06:22:42.286Z,17.37
2018-04-23T06:25:10.508Z,17.40
2018-04-23T06:27:38.730Z,17.39
2018-04-23T06:30:07.411Z,17.57
2018-04-23T06:32:35.617Z,17.52
2018-04-23T06:35:03.828Z,17.56
2018-04-23T06:37:32.914Z,17.63
2018-04-23T06:40:01.132Z,17.63
2018-04-23T06:42:29.634Z,17.69
2018-04-23T06:44:58.183Z,17.64
2018-04-23T06:47:26.402Z,17.66
2018-04-23T06:49:54.721Z,17.71
2018-04-23T06:52:23.275Z,17.67
2018-04-23T06:54:51.463Z,17.59
2018-04-23T06:57:19.913Z,17.63
2018-04-23T06:59:48.539Z,17.46
2018-04-23T07:02:16.791Z,17.33
2018-04-23T07:04:45.019Z,17.36
2018-04-23T07:07:14.139Z,17.28
2018-04-23T07:09:44.040Z,17.30
2018-04-23T07:12:12.293Z,17.28
2018-04-23T07:14:40.491Z,17.16
2018-04-23T07:17:08.971Z,17.03
2018-04-23T07:19:38.140Z,16.94
2018-04-23T07:22:06.340Z,16.93
2018-04-23T07:24:34.559Z,16.99
2018-04-23T07:27:03.140Z,17.15
2018-04-23T07:29:33.165Z,17.15
2018-04-23T07:32:01.367Z,17.28
2018-04-23T07:34:29.560Z,17.37
2018-04-23T07:36:58.215Z,17.26
2018-04-23T07:39:26.406Z,17.05
2018-04-23T07:41:54.682Z,17.02
2018-04-23T07:44:23.317Z,16.82
2018-04-23T07:46:51.559Z,16.90
2018-04-23T07:49:19.771Z,16.93
2018-04-23T07:51:48.478Z,16.91
2018-04-23T07:54:16.742Z,16.94
2018-04-23T07:56:44.926Z,17.11
2018-04-23T07:59:13.854Z,17.22
2018-04-23T08:01:42.132Z,17.41
2018-04-23T08:04:10.706Z,17.49
2018-04-23T08:06:39.263Z,17.41
2018-04-23T08:09:07.487Z,17.41
2018-04-23T08:11:35.736Z,17.53
2018-04-23T08:14:04.395Z,17.65
2018-04-23T08:16:32.646Z,17.75
2018-04-23T08:19:00.846Z,17.54
2018-04-23T08:21:29.399Z,17.59
2018-04-23T08:23:57.596Z,17.57
2018-04-23T08:26:25.995Z,17.53
2018-04-23T08:28:54.558Z,17.49
2018-04-23T08:31:22.780Z,17.40
2018-04-23T08:33:51.176Z,17.43
2018-04-23T08:36:19.776Z,17.39
2018-04-23T08:38:48.008Z,17.44
2018-04-23T08:41:16.234Z,17.56
2018-04-23T08:43:44.966Z,17.59
2018-04-23T08:46:13.192Z,17.69
2018-04-23T08:48:41.438Z,17.81
2018-04-23T08:51:10.076Z,17.85
2018-04-23T08:53:38.284Z,17.92
2018-04-23T08:56:06.527Z,17.91
2018-04-23T08:58:35.140Z,17.94
2018-04-23T09:01:03.360Z,17.92
2018-04-23T09:03:31.583Z,18.02
2018-04-23T09:06:00.157Z,18.16
2018-04-23T09:08:28.358Z,18.23
2018-04-23T09:10:56.745Z,18.38
2018-04-23T09:13:26.229Z,18.45
2018-04-23T09:15:54.780Z,18.47
2018-04-23T09:18:22.964Z,18.43
2018-04-23T09:20:51.410Z,18.41
2018-04-23T09:23:19.876Z,18.45
2018-04-23T09:25:48.092Z,18.54
2018-04-23T09:28:16.290Z,18.73
2018-04-23T09:30:45.651Z,18.85
2018-04-23T09:33:13.890Z,18.89
2018-04-23T09:35:42.149Z,18.83
2018-04-23T09:38:10.775Z,18.85
2018-04-23T09:40:38.998Z,18.99
2018-04-23T09:43:07.281Z,19.09
2018-04-23T09:45:36.636Z,19.06
2018-04-23T09:48:05.338Z,19.27
2018-04-23T09:50:33.548Z,19.31
2018-04-23T09:53:01.755Z,19.23
2018-04-23T09:55:31.768Z,19.45
2018-04-23T09:58:00.499Z,19.75
2018-04-23T10:00:31.534Z,19.79
2018-04-23T10:03:14.604Z,19.83
2018-04-23T10:05:42.826Z,19.89
2018-04-23T10:08:11.191Z,20.02
2018-04-23T10:10:39.422Z,20.08
2018-04-23T10:13:07.813Z,20.15
2018-04-23T10:15:36.324Z,20.07
2018-04-23T10:18:04.559Z,19.94
2018-04-23T10:20:32.949Z,19.98
2018-04-23T10:23:01.447Z,19.78
2018-04-23T10:25:29.695Z,19.77
2018-04-23T10:27:57.944Z,19.76
2018-04-23T10:30:26.584Z,19.79
2018-04-23T10:32:54.806Z,19.59
2018-04-23T10:35:23.133Z,19.52
2018-04-23T10:37:51.710Z,19.58
2018-04-23T10:40:19.999Z,19.72
2018-04-23T10:42:48.201Z,19.72
2018-04-23T10:45:16.919Z,20.02
2018-04-23T10:47:45.193Z,20.06
2018-04-23T10:50:13.408Z,20.06
2018-04-23T10:52:41.909Z,20.02
2018-04-23T10:55:10.133Z,20.14
2018-04-23T10:57:38.644Z,20.23
2018-04-23T11:00:07.669Z,20.26
2018-04-23T11:02:35.889Z,20.39
2018-04-23T11:05:04.078Z,20.43
2018-04-23T11:07:32.562Z,20.63
2018-04-23T11:10:00.798Z,20.59
2018-04-23T11:12:28.974Z,20.40
2018-04-23T11:14:58.100Z,20.30
2018-04-23T11:17:26.804Z,20.19
2018-04-23T11:19:55.002Z,19.97
2018-04-23T11:22:23.177Z,19.90
2018-04-23T11:24:51.965Z,19.88
2018-04-23T11:27:20.190Z,19.90
2018-04-23T11:29:49.108Z,20.04
2018-04-23T11:32:17.709Z,20.16
2018-04-23T11:34:45.925Z,20.24
2018-04-23T11:37:14.203Z,20.40
2018-04-23T11:39:42.815Z,20.32
2018-04-23T11:42:12.172Z,20.13
2018-04-23T11:44:40.415Z,20.24
2018-04-23T11:47:08.626Z,20.36
2018-04-23T11:49:37.384Z,20.58
2018-04-23T11:52:05.591Z,20.65
2018-04-23T11:54:33.804Z,20.61
2018-04-23T11:57:02.540Z,20.58
2018-04-23T11:59:30.790Z,20.55
2018-04-23T12:01:59.011Z,20.51
2018-04-23T12:04:27.619Z,20.57
2018-04-23T12:06:56.368Z,20.52
2018-04-23T12:09:24.885Z,20.47
2018-04-23T12:11:53.328Z,20.90
2018-04-23T12:14:22.321Z,21.64
2018-04-23T12:16:51.351Z,22.65
2018-04-23T12:19:19.963Z,23.14
2018-04-23T12:21:48.632Z,23.69
2018-04-23T12:24:16.848Z,24.15
2018-04-23T12:26:45.054Z,24.38
2018-04-23T12:29:13.659Z,24.53
2018-04-23T12:31:41.905Z,24.59
2018-04-23T12:34:10.294Z,24.58
2018-04-23T12:36:38.798Z,24.60
2018-04-23T12:39:08.216Z,24.31
2018-04-23T12:41:36.421Z,24.03
2018-04-23T12:44:04.631Z,23.93
2018-04-23T12:46:33.306Z,24.07
2018-04-23T12:49:01.496Z,23.54
2018-04-23T12:51:29.725Z,23.27
2018-04-23T12:53:58.484Z,23.45
2018-04-23T12:56:26.693Z,23.90
2018-04-23T12:58:54.918Z,24.16
2018-04-23T13:01:23.517Z,24.50
2018-04-23T13:03:52.504Z,24.34
2018-04-23T13:06:21.058Z,24.30
2018-04-23T13:08:49.766Z,24.36
2018-04-23T13:11:17.971Z,25.46
2018-04-23T13:13:46.178Z,25.46
2018-04-23T13:16:14.902Z,25.27
2018-04-23T13:18:43.136Z,25.04
2018-04-23T13:21:11.431Z,25.19
2018-04-23T13:23:39.914Z,25.02
2018-04-23T13:26:08.146Z,25.33
2018-04-23T13:28:36.379Z,25.24
2018-04-23T13:31:05.009Z,24.83
2018-04-23T13:33:33.224Z,25.00
2018-04-23T13:36:01.455Z,25.21
2018-04-23T13:38:30.457Z,25.73
2018-04-23T13:41:00.423Z,25.76
2018-04-23T13:43:28.613Z,25.08
2018-04-23T13:45:56.821Z,24.41
2018-04-23T13:48:25.449Z,24.38
2018-04-23T13:50:53.886Z,25.53
2018-04-23T13:53:22.102Z,25.24
2018-04-23T13:55:50.505Z,24.70
2018-04-23T13:58:18.733Z,24.77
2018-04-23T14:00:46.966Z,24.85
2018-04-23T14:03:15.293Z,24.41
2018-04-23T14:05:43.514Z,23.92
2018-04-23T14:08:11.788Z,23.33
2018-04-23T14:10:41.251Z,23.24
2018-04-23T14:13:09.882Z,23.39
2018-04-23T14:15:38.062Z,23.87
2018-04-23T14:18:06.268Z,24.15
2018-04-23T14:20:34.873Z,23.70
2018-04-23T14:23:03.069Z,23.65
2018-04-23T14:25:31.269Z,23.60
2018-04-23T14:28:00.069Z,23.22
2018-04-23T14:30:28.618Z,23.15
2018-04-23T14:32:57.127Z,23.26
2018-04-23T14:35:25.649Z,23.21
2018-04-23T14:37:53.878Z,22.90
2018-04-23T14:40:22.288Z,22.65
2018-04-23T14:42:50.878Z,22.80
2018-04-23T14:45:19.118Z,22.67
2018-04-23T14:47:47.392Z,22.39
2018-04-23T14:50:15.956Z,22.08
2018-04-23T14:52:44.171Z,22.27
2018-04-23T14:55:12.581Z,22.33
2018-04-23T14:57:41.126Z,22.44
2018-04-23T15:00:10.675Z,22.58
2018-04-23T15:02:39.289Z,22.54
2018-04-23T15:05:07.847Z,22.43
2018-04-23T15:07:36.813Z,22.77
2018-04-23T15:10:05.000Z,22.79
2018-04-23T15:12:33.667Z,22.63
2018-04-23T15:15:02.311Z,22.57
2018-04-23T15:17:31.406Z,22.09
2018-04-23T15:20:00.229Z,21.61
2018-04-23T15:22:28.973Z,21.37
2018-04-23T15:24:57.431Z,21.22
2018-04-23T15:27:25.644Z,21.18
2018-04-23T15:29:53.972Z,21.17
2018-04-23T15:32:22.592Z,21.27
2018-04-23T15:34:50.858Z,21.29
2018-04-23T15:37:19.202Z,21.22
2018-04-23T15:39:47.725Z,21.24
2018-04-23T15:42:15.952Z,21.32
2018-04-23T15:44:44.176Z,21.31
2018-04-23T15:47:12.913Z,21.15
2018-04-23T15:49:41.152Z,20.99
2018-04-23T15:52:09.366Z,20.99
2018-04-23T15:54:38.089Z,20.94
2018-04-23T15:57:06.344Z,21.04
2018-04-23T15:59:34.567Z,21.07
2018-04-23T16:02:03.282Z,20.89
2018-04-23T16:04:31.520Z,20.80
2018-04-23T16:06:59.726Z,20.66
2018-04-23T16:09:28.254Z,20.73
2018-04-23T16:11:56.470Z,20.81
2018-04-23T16:14:24.671Z,20.75
2018-04-23T16:16:53.314Z,20.74
2018-04-23T16:19:21.544Z,20.66
2018-04-23T16:21:50.262Z,20.54
2018-04-23T16:24:18.659Z,20.55
2018-04-23T16:26:47.325Z,20.49
2018-04-23T16:29:15.526Z,20.55
2018-04-23T16:31:43.745Z,20.52
2018-04-23T16:34:12.381Z,20.57
2018-04-23T16:36:40.572Z,20.66
2018-04-23T16:39:08.784Z,20.49
2018-04-23T16:41:37.478Z,20.32
2018-04-23T16:44:05.665Z,20.24
2018-04-23T16:46:33.862Z,20.17
2018-04-23T16:49:02.624Z,20.11
2018-04-23T16:51:30.827Z,20.11
2018-04-23T16:53:59.028Z,20.03
2018-04-23T16:56:27.662Z,19.95
2018-04-23T16:58:55.875Z,19.88
2018-04-23T17:01:24.123Z,19.80
2018-04-23T17:03:53.464Z,19.71
2018-04-23T17:06:22.950Z,19.67
2018-04-23T17:08:52.239Z,19.69
2018-04-23T17:11:20.453Z,19.65
2018-04-23T17:13:49.025Z,19.68
2018-04-23T17:16:17.245Z,19.47
2018-04-23T17:18:45.460Z,19.44
2018-04-23T17:21:14.023Z,19.42
2018-04-23T17:26:16.603Z,19.44
2018-04-23T17:28:45.574Z,19.38
2018-04-23T17:31:14.140Z,19.27
2018-04-23T17:33:42.375Z,19.20
2018-04-23T17:36:10.855Z,19.17
2018-04-23T17:38:39.399Z,19.17
2018-04-23T17:41:07.606Z,19.18
2018-04-23T17:43:35.903Z,19.17
2018-04-23T17:46:04.987Z,19.15
2018-04-23T17:48:33.222Z,19.16
2018-04-23T17:51:01.779Z,19.14
2018-04-23T17:53:30.565Z,19.06
2018-04-23T17:55:58.802Z,18.97
2018-04-23T17:58:27.054Z,18.90
2018-04-23T18:00:55.638Z,18.84
2018-04-23T18:03:23.935Z,18.79
2018-04-23T18:05:52.241Z,18.71
2018-04-23T18:08:21.809Z,18.69
2018-04-23T18:10:50.523Z,18.65
2018-04-23T18:13:18.785Z,18.60
2018-04-23T18:15:46.972Z,18.53
2018-04-23T18:18:16.479Z,18.57
2018-04-23T18:20:45.222Z,18.47
2018-04-23T18:23:13.512Z,18.41
2018-04-23T18:25:42.187Z,18.31
2018-04-23T18:28:11.077Z,18.31
2018-04-23T18:33:13.658Z,18.13
2018-04-23T18:35:42.394Z,18.09
2018-04-23T18:38:11.117Z,18.06
2018-04-23T18:40:39.331Z,18.06
2018-04-23T18:43:07.834Z,17.99
2018-04-23T18:45:36.591Z,17.99
2018-04-23T18:48:04.812Z,17.95
2018-04-23T18:50:33.077Z,17.87
2018-04-23T18:53:01.828Z,17.85
2018-04-23T18:55:30.060Z,17.84
2018-04-23T18:57:58.333Z,17.84
2018-04-23T19:00:26.862Z,17.86
2018-04-23T19:02:55.107Z,17.86
2018-04-23T19:05:24.058Z,17.85
2018-04-23T19:07:52.344Z,17.86
2018-04-23T19:10:20.602Z,17.81
2018-04-23T19:12:49.673Z,17.78
2018-04-23T19:15:18.651Z,17.73
2018-04-23T19:17:47.087Z,17.74
2018-04-23T19:20:16.349Z,17.74
2018-04-23T19:22:44.926Z,17.61
2018-04-23T19:25:13.753Z,17.67
2018-04-23T19:27:41.985Z,17.69
2018-04-23T19:30:10.814Z,17.64
2018-04-23T19:32:39.455Z,17.56
2018-04-23T19:35:07.665Z,17.51
2018-04-23T19:37:36.877Z,17.58
2018-04-23T19:40:05.405Z,17.61
2018-04-23T19:42:34.121Z,17.51
2018-04-23T19:45:02.349Z,17.48
2018-04-23T19:47:30.550Z,17.43
2018-04-23T19:49:59.352Z,17.46
2018-04-23T19:52:27.560Z,17.46
2018-04-23T19:54:55.764Z,17.50
2018-04-23T19:57:24.468Z,17.45
2018-04-23T19:59:52.660Z,17.38
2018-04-23T20:02:20.921Z,17.47
2018-04-23T20:04:49.536Z,17.39
2018-04-23T20:07:17.911Z,17.34
2018-04-23T20:09:46.647Z,17.37
2018-04-23T20:12:15.239Z,17.33
2018-04-23T20:14:43.504Z,17.37
2018-04-23T20:17:11.799Z,17.32
2018-04-23T20:19:40.364Z,17.19
2018-04-23T20:22:08.595Z,17.24
2018-04-23T20:24:36.997Z,17.12
2018-04-23T20:27:05.493Z,17.07
2018-04-23T20:29:33.750Z,17.12
2018-04-23T20:32:02.113Z,17.07
2018-04-23T20:34:30.841Z,17.10
2018-04-23T20:36:59.265Z,17.07
2018-04-23T20:39:27.536Z,17.08
2018-04-23T20:41:56.519Z,16.97
2018-04-23T20:44:25.476Z,16.95
2018-04-23T20:46:55.279Z,16.90
2018-04-23T20:49:23.466Z,16.89
2018-04-23T20:51:52.307Z,16.84
2018-04-23T20:54:20.999Z,16.84
2018-04-23T20:56:49.254Z,16.81
2018-04-23T20:59:17.484Z,16.76
2018-04-23T21:01:46.104Z,16.75
2018-04-23T21:04:15.501Z,16.72
2018-04-23T21:06:43.703Z,16.68
2018-04-23T21:09:11.953Z,16.64
2018-04-23T21:11:40.600Z,16.58
2018-04-23T21:14:08.788Z,16.54
2018-04-23T21:16:37.052Z,16.46
2018-04-23T21:19:05.754Z,16.43
2018-04-23T21:21:33.978Z,16.38
2018-04-23T21:24:02.226Z,16.32
2018-04-23T21:26:30.843Z,16.32
2018-04-23T21:28:59.122Z,16.25
2018-04-23T21:31:27.363Z,16.24
2018-04-23T21:33:56.178Z,16.22
2018-04-23T21:36:24.378Z,16.16
2018-04-23T21:38:53.269Z,16.07
2018-04-23T21:41:21.902Z,15.97
2018-04-23T21:43:50.131Z,15.95
2018-04-23T21:46:18.523Z,15.92
2018-04-23T21:48:47.000Z,15.86
2018-04-23T21:51:15.281Z,15.82
2018-04-23T21:53:43.520Z,15.74
2018-04-23T21:56:12.043Z,15.72
2018-04-23T21:58:40.328Z,15.70
2018-04-23T22:01:08.555Z,15.72
2018-04-23T22:03:37.319Z,15.70
2018-04-23T22:06:05.591Z,15.66
2018-04-23T22:08:33.793Z,15.60
2018-04-23T22:11:02.508Z,15.60
2018-04-23T22:13:30.745Z,15.58
2018-04-23T22:15:58.941Z,15.53
2018-04-23T22:18:27.508Z,15.47
2018-04-23T22:20:55.696Z,15.47
2018-04-23T22:23:25.018Z,15.38
2018-04-23T22:25:53.419Z,15.38
2018-04-23T22:28:22.089Z,15.34
2018-04-23T22:30:50.304Z,15.32
2018-04-23T22:33:18.490Z,15.27
2018-04-23T22:35:47.232Z,15.23
2018-04-23T22:38:15.418Z,15.20
2018-04-23T22:40:43.682Z,15.18
2018-04-23T22:43:12.473Z,15.08
2018-04-23T22:45:40.707Z,15.04
2018-04-23T22:48:08.925Z,15.04
2018-04-23T22:50:37.718Z,14.99
2018-04-23T22:53:05.914Z,14.98
2018-04-23T22:55:34.203Z,14.91
2018-04-23T22:58:02.805Z,14.92
2018-04-23T23:00:30.998Z,15.00
2018-04-23T23:02:59.268Z,14.88
2018-04-23T23:05:28.071Z,14.87
2018-04-23T23:07:56.246Z,14.80
2018-04-23T23:10:24.453Z,14.74
2018-04-23T23:12:53.243Z,14.76
2018-04-23T23:15:21.433Z,14.74
2018-04-23T23:17:49.639Z,14.64
2018-04-23T23:20:18.391Z,14.65
2018-04-23T23:22:46.942Z,14.61
2018-04-23T23:25:15.470Z,14.58
2018-04-23T23:27:44.187Z,14.51
2018-04-23T23:30:12.864Z,14.44
2018-04-23T23:32:41.075Z,14.49
2018-04-23T23:35:09.654Z,14.40
2018-04-23T23:37:37.910Z,14.31
2018-04-23T23:40:06.123Z,14.22
2018-04-23T23:42:34.831Z,14.20
2018-04-23T23:45:03.036Z,14.15
2018-04-23T23:47:31.245Z,14.07
2018-04-23T23:50:00.043Z,14.05
2018-04-23T23:52:28.258Z,13.99
2018-04-23T23:54:56.475Z,13.97
2018-04-23T23:57:25.098Z,13.92
2018-04-23T23:59:53.335Z,13.89
